createdAt,value
2017-12-31T00:03:31.002Z,99804.78
2017-12-31T00:08:32.927Z,99818.60
2017-12-31T00:13:34.264Z,99825.41
2017-12-31T00:18:50.212Z,99820.23
2017-12-31T00:23:51.539Z,99822.07
2017-12-31T00:28:52.862Z,99813.53
2017-12-31T00:33:54.221Z,99809.69
2017-12-31T00:38:55.535Z,99804.03
2017-12-31T00:43:56.855Z,99805.74
2017-12-31T00:48:58.182Z,99809.22
2017-12-31T00:53:59.529Z,99803.58
2017-12-31T00:59:01.602Z,99818.34
2017-12-31T01:04:02.982Z,99828.82
2017-12-31T01:09:04.361Z,99830.72
2017-12-31T01:14:05.674Z,99831.87
2017-12-31T01:19:07.702Z,99822.17
2017-12-31T01:24:18.037Z,99816.52
2017-12-31T01:29:20.227Z,99826.42
2017-12-31T01:34:21.580Z,99830.56
2017-12-31T01:39:22.910Z,99836.55
2017-12-31T01:44:25.051Z,99837.19
2017-12-31T01:49:26.379Z,99833.70
2017-12-31T01:54:27.710Z,99832.29
2017-12-31T01:59:29.803Z,99826.80
2017-12-31T02:04:31.119Z,99829.23
2017-12-31T02:09:33.195Z,99838.31
2017-12-31T02:14:34.527Z,99844.35
2017-12-31T02:19:36.596Z,99846.46
2017-12-31T02:24:47.338Z,99849.31
2017-12-31T02:29:49.809Z,99861.00
2017-12-31T02:34:51.159Z,99862.15
2017-12-31T02:39:52.489Z,99865.20
2017-12-31T02:44:53.831Z,99862.30
2017-12-31T02:49:55.889Z,99865.47
2017-12-31T02:54:57.212Z,99869.56
2017-12-31T02:59:58.583Z,99857.95
2017-12-31T03:04:59.915Z,99857.66
2017-12-31T03:10:02.075Z,99852.02
2017-12-31T03:15:03.394Z,99847.09
2017-12-31T03:20:04.764Z,99846.24
2017-12-31T03:25:06.082Z,99841.17
2017-12-31T03:30:10.599Z,99846.05
2017-12-31T03:35:14.497Z,99844.29
2017-12-31T03:40:18.024Z,99842.27
2017-12-31T03:45:21.514Z,99837.39
2017-12-31T03:50:23.655Z,99826.33
2017-12-31T03:55:24.992Z,99828.33
2017-12-31T04:00:26.330Z,99818.91
2017-12-31T04:05:27.817Z,99811.11
2017-12-31T04:10:29.398Z,99800.12
2017-12-31T04:15:31.458Z,99800.36
2017-12-31T04:20:32.776Z,99806.34
2017-12-31T04:25:34.116Z,99811.13
2017-12-31T04:30:35.447Z,99806.06
2017-12-31T04:35:36.789Z,99801.59
2017-12-31T04:40:42.822Z,99792.80
2017-12-31T04:45:45.743Z,99792.45
2017-12-31T04:50:49.411Z,99796.46
2017-12-31T04:55:50.811Z,99783.92
2017-12-31T05:00:52.263Z,99793.85
2017-12-31T05:05:53.682Z,99796.93
2017-12-31T05:10:55.083Z,99787.70
2017-12-31T05:15:56.478Z,99804.17
2017-12-31T05:20:57.814Z,99788.72
2017-12-31T05:25:59.140Z,99783.16
2017-12-31T05:31:01.223Z,99771.36
2017-12-31T05:36:02.584Z,99777.11
2017-12-31T05:41:03.932Z,99765.80
2017-12-31T05:46:05.315Z,99751.73
2017-12-31T05:51:12.315Z,99743.94
2017-12-31T05:56:17.844Z,99738.92
2017-12-31T06:01:19.254Z,99731.58
2017-12-31T06:06:20.654Z,99729.23
2017-12-31T06:11:21.986Z,99717.25
2017-12-31T06:16:24.101Z,99712.03
2017-12-31T06:21:26.190Z,99705.53
2017-12-31T06:26:27.531Z,99700.20
2017-12-31T06:31:31.779Z,99696.75
2017-12-31T06:36:34.300Z,99685.20
2017-12-31T06:41:38.063Z,99679.64
2017-12-31T06:46:43.464Z,99667.58
2017-12-31T06:51:47.681Z,99664.94
2017-12-31T06:56:49.016Z,99658.08
2017-12-31T07:01:50.375Z,99656.35
2017-12-31T07:06:51.707Z,99650.75
2017-12-31T07:11:53.384Z,99642.39
2017-12-31T07:16:54.758Z,99649.28
2017-12-31T07:21:56.223Z,99644.44
2017-12-31T07:27:01.622Z,99633.34
2017-12-31T07:32:03.240Z,99646.21
2017-12-31T07:37:08.199Z,99627.06
2017-12-31T07:42:12.052Z,99628.39
2017-12-31T07:47:16.715Z,99630.36
2017-12-31T07:52:18.844Z,99621.52
2017-12-31T07:57:20.222Z,99623.05
2017-12-31T08:02:21.595Z,99623.09
2017-12-31T08:07:22.910Z,99615.73
2017-12-31T08:12:25.046Z,99619.27
2017-12-31T08:17:26.520Z,99619.13
2017-12-31T08:22:27.930Z,99603.06
2017-12-31T08:27:29.410Z,99608.77
2017-12-31T08:32:30.718Z,99617.23
2017-12-31T08:37:32.050Z,99614.91
2017-12-31T08:42:33.522Z,99606.28
2017-12-31T08:47:38.984Z,99612.36
2017-12-31T08:52:42.008Z,99614.63
2017-12-31T08:57:45.100Z,99608.68
2017-12-31T09:02:48.266Z,99608.84
2017-12-31T09:07:51.035Z,99618.11
2017-12-31T09:12:52.571Z,99617.39
2017-12-31T09:17:53.883Z,99617.69
2017-12-31T09:22:55.401Z,99611.02
2017-12-31T09:27:56.720Z,99613.55
2017-12-31T09:32:58.033Z,99610.45
2017-12-31T09:38:00.102Z,99598.38
2017-12-31T09:43:01.451Z,99594.20
2017-12-31T09:48:02.934Z,99599.35
2017-12-31T09:53:06.169Z,99599.27
2017-12-31T09:58:11.161Z,99585.97
2017-12-31T10:03:14.627Z,99588.64
2017-12-31T10:08:16.026Z,99577.86
2017-12-31T10:13:17.389Z,99566.05
2017-12-31T10:18:18.787Z,99553.11
2017-12-31T10:23:20.103Z,99562.06
2017-12-31T10:28:23.195Z,99553.76
2017-12-31T10:33:24.566Z,99564.03
2017-12-31T10:38:25.935Z,99560.11
2017-12-31T10:43:27.901Z,99564.83
2017-12-31T10:48:29.319Z,99569.67
2017-12-31T10:53:30.751Z,99572.34
2017-12-31T10:58:32.235Z,99560.88
2017-12-31T11:03:34.680Z,99569.23
2017-12-31T11:08:39.692Z,99568.56
2017-12-31T11:13:42.619Z,99571.81
2017-12-31T11:18:44.608Z,99567.72
2017-12-31T11:23:45.931Z,99566.64
2017-12-31T11:28:47.431Z,99559.81
2017-12-31T11:33:49.527Z,99566.55
2017-12-31T11:38:50.904Z,99540.16
2017-12-31T11:43:52.251Z,99532.33
2017-12-31T11:48:53.588Z,99535.20
2017-12-31T11:53:54.927Z,99538.05
2017-12-31T11:58:56.265Z,99538.69
2017-12-31T12:03:57.612Z,99530.84
2017-12-31T12:08:58.943Z,99511.91
2017-12-31T12:14:00.282Z,99490.78
2017-12-31T12:19:01.622Z,99489.64
2017-12-31T12:24:02.970Z,99486.17
2017-12-31T12:29:04.718Z,99467.98
2017-12-31T12:34:09.587Z,99444.41
2017-12-31T12:39:12.708Z,99426.61
2017-12-31T12:44:14.955Z,99423.25
2017-12-31T12:49:17.056Z,99423.55
2017-12-31T12:54:18.429Z,99435.20
2017-12-31T12:59:19.772Z,99438.48
2017-12-31T13:04:21.185Z,99436.31
2017-12-31T13:09:22.739Z,99434.23
2017-12-31T13:14:25.627Z,99432.94
2017-12-31T13:19:26.989Z,99423.28
2017-12-31T13:24:29.398Z,99430.75
2017-12-31T13:29:30.947Z,99417.00
2017-12-31T13:34:32.302Z,99413.87
2017-12-31T13:39:33.631Z,99410.92
2017-12-31T13:44:40.509Z,99393.09
2017-12-31T13:49:43.553Z,99389.57
2017-12-31T13:54:45.128Z,99377.67
2017-12-31T13:59:46.519Z,99366.86
2017-12-31T14:04:47.842Z,99371.44
2017-12-31T14:09:49.194Z,99369.77
2017-12-31T14:14:50.558Z,99379.80
2017-12-31T14:19:51.918Z,99361.20
2017-12-31T14:24:53.254Z,99368.91
2017-12-31T14:29:54.773Z,99362.36
2017-12-31T14:34:56.130Z,99341.47
2017-12-31T14:39:57.531Z,99359.50
2017-12-31T14:44:58.845Z,99348.34
2017-12-31T14:50:00.193Z,99346.14
2017-12-31T14:55:02.291Z,99349.55
2017-12-31T15:00:05.487Z,99328.20
2017-12-31T15:05:10.196Z,99350.02
2017-12-31T15:10:12.911Z,99344.23
2017-12-31T15:15:14.832Z,99352.22
2017-12-31T15:20:16.217Z,99338.85
2017-12-31T15:25:18.312Z,99336.77
2017-12-31T15:30:19.659Z,99348.27
2017-12-31T15:35:20.983Z,99326.26
2017-12-31T15:40:22.340Z,99322.42
2017-12-31T15:45:23.675Z,99329.56
2017-12-31T15:50:25.014Z,99314.33
2017-12-31T15:55:26.373Z,99312.81
2017-12-31T16:00:28.463Z,99322.05
2017-12-31T16:05:29.791Z,99328.97
2017-12-31T16:10:31.121Z,99327.92
2017-12-31T16:15:32.443Z,99317.55
2017-12-31T16:20:39.343Z,99329.34
2017-12-31T16:25:41.881Z,99326.18
2017-12-31T16:30:44.660Z,99314.73
2017-12-31T16:35:46.205Z,99311.09
2017-12-31T16:40:48.310Z,99305.95
2017-12-31T16:45:50.483Z,99305.14
2017-12-31T16:50:51.810Z,99304.84
2017-12-31T16:55:53.125Z,99291.86
2017-12-31T17:00:55.232Z,99302.08
2017-12-31T17:05:56.550Z,99277.45
2017-12-31T17:10:57.913Z,99288.85
2017-12-31T17:15:59.243Z,99283.16
2017-12-31T17:21:00.606Z,99290.48
2017-12-31T17:26:01.963Z,99273.30
2017-12-31T17:31:03.303Z,99270.27
2017-12-31T17:36:06.549Z,99263.45
2017-12-31T17:41:13.520Z,99258.92
2017-12-31T17:46:15.969Z,99259.46
2017-12-31T17:51:17.332Z,99257.03
2017-12-31T17:56:18.716Z,99249.47
2017-12-31T18:01:20.835Z,99255.60
2017-12-31T18:06:22.180Z,99259.15
2017-12-31T18:11:23.626Z,99255.52
2017-12-31T18:16:24.999Z,99214.13
2017-12-31T18:21:27.144Z,99266.05
2017-12-31T18:26:28.473Z,99253.38
2017-12-31T18:31:29.788Z,99252.89
2017-12-31T18:36:31.124Z,99241.50
2017-12-31T18:41:32.475Z,99241.35
2017-12-31T18:46:36.000Z,99236.06
2017-12-31T18:51:40.621Z,99232.84
2017-12-31T18:56:43.503Z,99230.08
2017-12-31T19:01:45.107Z,99227.77
2017-12-31T19:06:47.197Z,99235.55
2017-12-31T19:11:48.559Z,99226.06
2017-12-31T19:16:49.885Z,99225.74
2017-12-31T19:21:51.224Z,99218.65
2017-12-31T19:26:53.343Z,99219.72
2017-12-31T19:31:54.682Z,99216.41
2017-12-31T19:36:56.043Z,99218.92
2017-12-31T19:41:58.166Z,99200.55
2017-12-31T19:46:59.511Z,99214.61
2017-12-31T19:52:00.852Z,99218.27
2017-12-31T19:57:02.210Z,99207.56
2017-12-31T20:02:03.606Z,99175.44
2017-12-31T20:07:09.155Z,99160.11
2017-12-31T20:12:14.292Z,99160.72
2017-12-31T20:17:16.477Z,99133.55
2017-12-31T20:22:17.858Z,99140.84
2017-12-31T20:27:19.263Z,99148.13
2017-12-31T20:32:20.579Z,99139.14
2017-12-31T20:37:22.648Z,99122.26
2017-12-31T20:42:24.016Z,99081.55
2017-12-31T20:47:27.883Z,99117.52
2017-12-31T20:52:29.332Z,99130.73
2017-12-31T20:57:30.663Z,99128.41
2017-12-31T21:02:32.015Z,99132.84
2017-12-31T21:07:33.366Z,99140.96
2017-12-31T21:12:38.044Z,99140.00
2017-12-31T21:17:41.154Z,99144.40
2017-12-31T21:22:44.803Z,99138.83
2017-12-31T21:27:46.130Z,99128.52
2017-12-31T21:32:47.491Z,99126.52
2017-12-31T21:37:48.841Z,99121.02
2017-12-31T21:42:50.988Z,99118.86
2017-12-31T21:47:52.359Z,99126.95
2017-12-31T21:52:53.712Z,99121.47
2017-12-31T21:57:55.051Z,99121.86
2017-12-31T22:02:57.184Z,99124.34
2017-12-31T22:07:58.541Z,99146.84
2017-12-31T22:12:59.857Z,99157.31
2017-12-31T22:18:01.218Z,99161.08
2017-12-31T22:23:02.548Z,99173.84
2017-12-31T22:28:03.924Z,99172.63
2017-12-31T22:33:11.385Z,99180.62
2017-12-31T22:38:14.954Z,99191.80
2017-12-31T22:43:16.315Z,99188.02
2017-12-31T22:48:17.651Z,99184.21
2017-12-31T22:53:18.999Z,99176.92
2017-12-31T22:58:20.355Z,99172.30
2017-12-31T23:03:22.480Z,99185.73
2017-12-31T23:08:23.803Z,99183.91
2017-12-31T23:13:25.168Z,99178.66
2017-12-31T23:18:26.520Z,99186.43
2017-12-31T23:23:28.605Z,99204.14
2017-12-31T23:28:29.945Z,99201.59
2017-12-31T23:33:31.278Z,99204.09
2017-12-31T23:38:32.614Z,99210.77
2017-12-31T23:43:35.870Z,99194.71
2017-12-31T23:48:40.736Z,99202.69
2017-12-31T23:53:43.168Z,99205.28
2017-12-31T23:58:44.936Z,99189.66
